createdAt,value
2019-04-29T00:03:18.480Z,8.83
2019-04-29T00:11:53.584Z,10.60
2019-04-29T00:17:13.284Z,7.03
2019-04-29T00:22:20.460Z,8.40
2019-04-29T00:27:27.442Z,7.70
2019-04-29T00:37:49.684Z,19.73
2019-04-29T00:43:13.249Z,21.10
2019-04-29T00:53:27.241Z,14.53
2019-04-29T01:03:41.213Z,9.68
2019-04-29T01:08:48.482Z,10.90
2019-04-29T01:13:55.451Z,10.32
2019-04-29T01:19:03.981Z,13.90
2019-04-29T01:24:11.492Z,15.40
2019-04-29T01:29:19.582Z,15.05
2019-04-29T01:34:31.437Z,14.07
2019-04-29T01:44:50.560Z,17.35
2019-04-29T01:49:57.494Z,16.48
2019-04-29T02:00:12.576Z,14.60
2019-04-29T02:10:33.265Z,18.80
2019-04-29T02:15:40.447Z,23.60
2019-04-29T02:20:47.561Z,26.10
2019-04-29T02:25:54.437Z,19.97
2019-04-29T02:31:20.254Z,20.55
2019-04-29T02:41:42.750Z,27.27
2019-04-29T02:51:55.441Z,21.63
2019-04-29T02:57:11.256Z,20.90
2019-04-29T03:07:43.766Z,24.05
2019-04-29T03:12:51.068Z,20.95
2019-04-29T03:22:23.225Z,22.13
2019-04-29T03:27:30.407Z,25.65
2019-04-29T03:32:38.605Z,26.05
2019-04-29T03:37:45.585Z,26.07
2019-04-29T03:46:05.669Z,28.38
2019-04-29T03:56:18.549Z,28.95
2019-04-29T04:07:14.922Z,29.02
2019-04-29T04:12:21.687Z,33.20
2019-04-29T04:17:43.264Z,33.30
2019-04-29T04:22:50.452Z,33.95
2019-04-29T04:27:57.480Z,34.20
2019-04-29T04:38:10.472Z,39.90
2019-04-29T04:43:17.583Z,40.50
2019-04-29T04:48:24.438Z,39.48
2019-04-29T04:53:31.453Z,37.40
2019-04-29T04:58:38.442Z,37.08
2019-04-29T05:03:45.447Z,37.73
2019-04-29T05:08:52.439Z,39.33
2019-04-29T05:13:59.524Z,44.25
2019-04-29T05:19:06.599Z,45.33
2019-04-29T05:24:14.432Z,45.78
2019-04-29T05:29:21.560Z,40.45
2019-04-29T05:34:30.247Z,37.85
2019-04-29T05:39:40.238Z,34.65
2019-04-29T05:45:06.672Z,38.85
2019-04-29T05:55:37.575Z,36.05
2019-04-29T06:01:04.255Z,36.50
2019-04-29T06:06:12.386Z,35.25
2019-04-29T06:16:26.654Z,37.33
2019-04-29T06:21:33.568Z,41.18
2019-04-29T06:47:07.087Z,29.90
2019-04-29T06:57:21.425Z,31.52
2019-04-29T07:02:28.440Z,24.07
2019-04-29T07:07:35.423Z,26.55
2019-04-29T07:12:42.915Z,29.52
2019-04-29T07:17:51.565Z,26.23
2019-04-29T07:23:00.776Z,28.85
2019-04-29T07:28:07.460Z,30.97
2019-04-29T07:33:21.729Z,27.65
2019-04-29T07:38:23.687Z,29.63
2019-04-29T07:43:30.605Z,27.07
2019-04-29T07:48:41.874Z,34.15
2019-04-29T07:53:46.442Z,28.85
2019-04-29T07:58:53.561Z,30.60
2019-04-29T08:04:00.562Z,28.30
2019-04-29T08:09:09.828Z,27.45
2019-04-29T08:14:18.448Z,28.77
2019-04-29T08:24:46.002Z,29.35
2019-04-29T08:29:53.642Z,32.20
2019-04-29T08:40:16.265Z,32.98
2019-04-29T08:52:33.252Z,31.90
2019-04-29T08:57:40.417Z,28.80
2019-04-29T09:02:49.242Z,32.42
2019-04-29T09:07:57.371Z,32.25
2019-04-29T09:13:06.557Z,44.42
2019-04-29T09:18:13.490Z,41.05
2019-04-29T09:23:23.876Z,31.75
2019-04-29T09:28:30.856Z,34.85
2019-04-29T09:33:38.029Z,36.45
2019-04-29T09:38:45.411Z,39.13
2019-04-29T09:44:04.045Z,33.73
2019-04-29T09:52:50.587Z,40.63
2019-04-29T09:57:57.434Z,33.05
2019-04-29T10:03:10.395Z,32.85
2019-04-29T10:08:17.514Z,32.05
2019-04-29T10:13:24.459Z,32.53
2019-04-29T10:18:40.593Z,33.48
2019-04-29T10:23:47.586Z,36.65
2019-04-29T10:28:59.263Z,30.50
2019-04-29T10:34:08.017Z,32.00
2019-04-29T10:39:47.577Z,36.97
2019-04-29T10:45:12.447Z,34.45
2019-04-29T10:50:25.411Z,36.23
2019-04-29T10:55:33.672Z,33.08
2019-04-29T11:06:45.539Z,29.30
2019-04-29T11:11:52.528Z,32.53
2019-04-29T11:17:02.606Z,31.93
2019-04-29T11:22:11.552Z,29.75
2019-04-29T11:27:27.259Z,26.52
2019-04-29T11:32:45.437Z,31.60
2019-04-29T11:37:55.465Z,28.73
2019-04-29T11:43:01.576Z,31.42
2019-04-29T11:48:08.721Z,28.57
2019-04-29T11:53:16.231Z,31.35
2019-04-29T11:58:39.266Z,25.15
2019-04-29T12:03:51.458Z,26.02
2019-04-29T12:08:56.713Z,27.30
2019-04-29T12:14:22.275Z,27.05
2019-04-29T12:24:38.459Z,22.80
2019-04-29T12:29:48.931Z,22.10
2019-04-29T12:35:04.477Z,23.87
2019-04-29T12:40:30.247Z,28.00
2019-04-29T12:45:41.504Z,24.32
2019-04-29T12:50:50.988Z,22.62
2019-04-29T13:01:16.247Z,27.55
2019-04-29T13:06:39.129Z,24.27
2019-04-29T13:11:48.322Z,22.13
2019-04-29T13:17:16.552Z,25.08
2019-04-29T13:22:23.588Z,23.18
2019-04-29T13:27:30.442Z,22.13
2019-04-29T13:32:37.482Z,22.45
2019-04-29T13:37:45.537Z,28.10
2019-04-29T13:42:52.438Z,23.52
2019-04-29T13:48:19.226Z,26.87
2019-04-29T13:53:26.448Z,25.62
2019-04-29T13:58:34.488Z,25.82
2019-04-29T14:03:49.520Z,19.25
2019-04-29T14:09:00.092Z,16.97
2019-04-29T14:14:06.581Z,23.62
2019-04-29T14:19:13.439Z,21.50
2019-04-29T14:24:20.549Z,18.48
2019-04-29T14:29:28.179Z,19.90
2019-04-29T14:34:42.699Z,21.78
2019-04-29T14:39:49.639Z,21.17
2019-04-29T14:45:15.272Z,21.87
2019-04-29T14:50:22.460Z,26.45
2019-04-29T14:55:30.796Z,23.10
2019-04-29T15:00:56.139Z,25.40
2019-04-29T15:06:03.443Z,19.45
2019-04-29T15:11:11.618Z,16.42
2019-04-29T15:16:28.267Z,17.37
2019-04-29T15:21:47.480Z,17.12
2019-04-29T15:26:57.575Z,14.07
2019-04-29T15:32:05.050Z,12.63
2019-04-29T15:37:13.396Z,12.55
2019-04-29T15:42:20.457Z,17.82
2019-04-29T15:47:31.181Z,12.25
2019-04-29T15:52:36.421Z,16.05
2019-04-29T16:02:53.427Z,14.15
2019-04-29T16:08:08.254Z,13.08
2019-04-29T16:13:16.074Z,12.98
2019-04-29T16:18:24.322Z,15.43
2019-04-29T16:23:32.711Z,9.25
2019-04-29T16:28:40.426Z,11.43
2019-04-29T16:33:54.743Z,11.03
2019-04-29T16:38:56.437Z,10.90
2019-04-29T16:44:04.016Z,14.73
2019-04-29T16:49:12.259Z,9.20
2019-04-29T16:59:26.735Z,11.63
2019-04-29T17:04:34.390Z,9.30
2019-04-29T17:10:06.794Z,19.62
2019-04-29T17:20:22.725Z,10.88
2019-04-29T17:25:29.581Z,7.60
2019-04-29T17:31:14.927Z,13.60
2019-04-29T17:35:17.652Z,14.45
2019-04-29T17:35:18.771Z,13.97
2019-04-29T17:36:24.020Z,12.85
2019-04-29T17:41:31.427Z,13.38
2019-04-29T17:46:56.261Z,9.60
2019-04-29T17:52:06.767Z,11.22
2019-04-29T17:57:31.529Z,10.05
2019-04-29T18:03:00.678Z,5.35
2019-04-29T18:08:11.544Z,9.73
2019-04-29T18:18:46.261Z,7.90
2019-04-29T18:24:15.421Z,5.92
2019-04-29T18:29:22.579Z,9.00
2019-04-29T18:34:33.597Z,7.75
2019-04-29T18:39:39.435Z,8.13
2019-04-29T18:44:54.942Z,7.47
2019-04-29T18:49:56.525Z,6.87
2019-04-29T18:55:03.546Z,6.95
2019-04-29T19:00:14.513Z,9.43
2019-04-29T19:05:32.371Z,10.88
2019-04-29T19:10:39.456Z,10.18
2019-04-29T19:15:48.495Z,7.20
2019-04-29T19:20:57.018Z,11.25
2019-04-29T19:26:04.414Z,7.08
2019-04-29T19:31:49.932Z,9.77
2019-04-29T19:36:59.418Z,13.25
2019-04-29T19:42:06.460Z,9.53
2019-04-29T19:47:16.548Z,12.95
2019-04-29T19:52:30.507Z,9.38
2019-04-29T19:57:34.058Z,6.58
2019-04-29T20:02:48.664Z,8.10
2019-04-29T20:07:51.484Z,7.72
2019-04-29T20:12:59.599Z,10.80
2019-04-29T20:18:23.741Z,11.85
2019-04-29T20:23:28.809Z,10.80
2019-04-29T20:28:36.011Z,8.43
2019-04-29T20:38:51.457Z,13.30
2019-04-29T20:44:00.942Z,8.78
2019-04-29T20:49:07.662Z,10.90
2019-04-29T20:54:19.667Z,6.58
2019-04-29T20:59:26.929Z,8.43
2019-04-29T21:04:39.239Z,13.18
2019-04-29T21:09:42.445Z,6.85
2019-04-29T21:14:53.073Z,9.10
2019-04-29T21:20:00.428Z,9.58
2019-04-29T21:25:07.677Z,9.68
2019-04-29T21:30:15.479Z,10.75
2019-04-29T21:35:33.189Z,10.00
2019-04-29T21:40:46.133Z,10.10
2019-04-29T21:45:55.520Z,10.25
2019-04-29T21:51:02.420Z,7.90
2019-04-29T21:56:09.718Z,9.60
2019-04-29T22:01:17.082Z,7.65
2019-04-29T22:06:29.052Z,9.70
2019-04-29T22:11:37.773Z,7.92
2019-04-29T22:16:47.496Z,9.55
2019-04-29T22:21:52.700Z,9.78
2019-04-29T22:27:03.780Z,10.58
2019-04-29T22:32:14.434Z,10.27
2019-04-29T22:37:17.592Z,11.80
2019-04-29T22:42:39.429Z,12.55
2019-04-29T22:52:55.371Z,9.90
2019-04-29T22:58:08.155Z,11.78
2019-04-29T23:03:10.418Z,12.05
2019-04-29T23:08:17.451Z,10.10
2019-04-29T23:13:26.802Z,11.38
2019-04-29T23:18:41.609Z,9.40
2019-04-29T23:23:48.276Z,10.50
2019-04-29T23:28:59.457Z,10.00
2019-04-29T23:34:05.774Z,11.80
2019-04-29T23:39:12.782Z,9.48
2019-04-29T23:44:19.592Z,11.22
2019-04-29T23:49:26.442Z,9.60
2019-04-29T23:54:44.282Z,11.50
2019-04-29T23:59:47.320Z,8.50
